createdAt,value
2022-09-12T00:02:05.476Z,13.70
2022-09-12T00:04:33.398Z,13.20
2022-09-12T00:07:01.157Z,14.20
2022-09-12T00:09:29.083Z,15.10
2022-09-12T00:14:49.427Z,12.70
2022-09-12T00:17:19.312Z,14.73
2022-09-12T00:19:49.531Z,13.47
2022-09-12T00:22:17.322Z,13.93
2022-09-12T00:24:45.308Z,13.40
2022-09-12T00:27:15.195Z,12.90
2022-09-12T00:29:59.674Z,13.47
2022-09-12T00:32:29.814Z,13.67
2022-09-12T00:34:57.660Z,13.10
2022-09-12T00:37:25.459Z,12.27
2022-09-12T00:39:53.434Z,14.13
2022-09-12T00:42:27.407Z,13.73
2022-09-12T00:44:57.291Z,13.10
2022-09-12T00:47:29.663Z,12.90
2022-09-12T00:50:06.070Z,14.13
2022-09-12T00:52:38.369Z,13.90
2022-09-12T00:55:13.314Z,14.80
2022-09-12T00:57:45.531Z,12.87
2022-09-12T01:00:16.094Z,13.40
2022-09-12T01:02:55.893Z,14.93
2022-09-12T01:05:25.883Z,13.23
2022-09-12T01:07:54.431Z,14.83
2022-09-12T01:10:22.418Z,12.60
2022-09-12T01:12:50.534Z,13.87
2022-09-12T01:15:18.486Z,13.37
2022-09-12T01:18:05.998Z,14.60
2022-09-12T01:21:02.040Z,12.83
2022-09-12T01:24:12.846Z,13.00
2022-09-12T01:27:32.298Z,11.57
2022-09-12T01:30:23.883Z,13.20
2022-09-12T01:33:36.876Z,13.23
2022-09-12T01:36:24.298Z,12.57
2022-09-12T01:38:59.194Z,12.50
2022-09-12T01:41:32.048Z,12.70
2022-09-12T01:44:07.438Z,12.20
2022-09-12T01:46:46.282Z,12.03
2022-09-12T01:49:27.787Z,11.30
2022-09-12T01:52:01.055Z,12.33
2022-09-12T01:54:38.134Z,11.63
2022-09-12T01:57:14.758Z,11.60
2022-09-12T01:59:50.320Z,11.20
2022-09-12T02:02:23.919Z,11.17
2022-09-12T02:04:57.564Z,12.20
2022-09-12T02:07:36.848Z,12.13
2022-09-12T02:10:10.407Z,10.83
2022-09-12T02:12:45.458Z,12.40
2022-09-12T02:15:15.907Z,10.43
2022-09-12T02:17:46.953Z,10.70
2022-09-12T02:20:44.327Z,12.07
2022-09-12T02:23:15.500Z,11.07
2022-09-12T02:25:47.620Z,11.80
2022-09-12T02:28:25.220Z,11.60
2022-09-12T02:31:00.698Z,10.67
2022-09-12T02:33:33.683Z,11.37
2022-09-12T02:36:13.756Z,11.43
2022-09-12T02:38:45.738Z,10.03
2022-09-12T02:41:22.075Z,11.63
2022-09-12T02:43:53.651Z,12.20
2022-09-12T02:46:26.383Z,11.40
2022-09-12T02:48:59.597Z,11.00
2022-09-12T02:51:28.834Z,9.90
2022-09-12T02:54:00.266Z,10.57
2022-09-12T02:56:30.607Z,11.27
2022-09-12T02:59:04.879Z,10.43
2022-09-12T03:01:52.616Z,10.97
2022-09-12T03:05:05.643Z,10.97
2022-09-12T03:07:51.999Z,10.23
2022-09-12T03:10:40.423Z,10.17
2022-09-12T03:13:26.443Z,10.20
2022-09-12T03:16:05.044Z,9.33
2022-09-12T03:18:44.356Z,9.33
2022-09-12T03:21:29.906Z,10.60
2022-09-12T03:24:14.326Z,9.80
2022-09-12T03:26:46.164Z,9.53
2022-09-12T03:29:20.139Z,9.07
2022-09-12T03:31:53.377Z,10.40
2022-09-12T03:34:26.381Z,9.40
2022-09-12T03:36:58.156Z,8.70
2022-09-12T03:39:30.989Z,8.53
2022-09-12T03:42:01.075Z,9.20
2022-09-12T03:44:29.027Z,8.67
2022-09-12T03:46:56.829Z,9.90
2022-09-12T03:49:24.603Z,11.13
2022-09-12T03:52:01.517Z,8.90
2022-09-12T03:54:33.199Z,9.30
2022-09-12T03:57:03.304Z,11.27
2022-09-12T03:59:31.139Z,9.90
2022-09-12T04:01:59.042Z,9.67
2022-09-12T04:04:27.026Z,8.83
2022-09-12T04:06:55.144Z,9.73
2022-09-12T04:09:25.172Z,8.53
2022-09-12T04:11:56.522Z,9.70
2022-09-12T04:14:26.745Z,9.10
2022-09-12T04:16:56.918Z,8.83
2022-09-12T04:19:39.360Z,10.93
2022-09-12T04:22:09.606Z,9.97
2022-09-12T04:24:42.428Z,8.07
2022-09-12T04:27:11.621Z,8.57
2022-09-12T04:29:41.849Z,9.37
2022-09-12T04:32:09.704Z,8.60
2022-09-12T04:34:42.957Z,8.20
2022-09-12T04:37:11.645Z,8.43
2022-09-12T04:39:39.635Z,8.50
2022-09-12T04:42:07.737Z,8.70
2022-09-12T04:44:37.487Z,8.60
2022-09-12T04:47:05.508Z,8.47
2022-09-12T04:49:41.295Z,8.30
2022-09-12T04:52:09.310Z,8.27
2022-09-12T04:54:38.245Z,8.70
2022-09-12T04:57:06.206Z,7.70
2022-09-12T04:59:34.169Z,9.70
2022-09-12T05:02:03.615Z,8.23
2022-09-12T05:04:31.587Z,8.17
2022-09-12T05:07:02.294Z,8.27
2022-09-12T05:09:30.131Z,8.67
2022-09-12T05:12:05.780Z,7.60
2022-09-12T05:14:34.626Z,7.60
2022-09-12T05:17:06.875Z,7.87
2022-09-12T05:19:34.749Z,8.07
2022-09-12T05:22:02.595Z,7.60
2022-09-12T05:24:39.579Z,8.50
2022-09-12T05:27:07.457Z,8.07
2022-09-12T05:29:35.871Z,7.40
2022-09-12T05:32:07.742Z,7.30
2022-09-12T05:34:35.550Z,8.10
2022-09-12T05:37:03.373Z,7.57
2022-09-12T05:39:31.159Z,8.40
2022-09-12T05:41:58.987Z,7.30
2022-09-12T05:44:29.232Z,6.80
2022-09-12T05:46:57.494Z,7.40
2022-09-12T05:49:26.922Z,6.50
2022-09-12T05:51:54.767Z,7.57
2022-09-12T05:54:28.296Z,7.40
2022-09-12T05:56:58.695Z,7.20
2022-09-12T05:59:28.372Z,7.73
2022-09-12T06:01:58.794Z,7.80
2022-09-12T06:04:28.647Z,6.30
2022-09-12T06:06:56.504Z,7.30
2022-09-12T06:09:25.457Z,6.80
2022-09-12T06:11:53.517Z,7.57
2022-09-12T06:14:22.332Z,7.17
2022-09-12T06:17:00.194Z,7.33
2022-09-12T06:19:32.684Z,6.60
2022-09-12T06:22:01.531Z,7.43
2022-09-12T06:24:32.534Z,7.13
2022-09-12T06:27:02.249Z,6.60
2022-09-12T06:29:32.499Z,7.13
2022-09-12T06:32:02.716Z,7.57
2022-09-12T06:34:34.395Z,5.97
2022-09-12T06:37:05.291Z,7.17
2022-09-12T06:39:33.186Z,6.97
2022-09-12T06:42:01.117Z,6.50
2022-09-12T06:44:31.997Z,7.03
2022-09-12T06:47:01.901Z,7.87
2022-09-12T06:49:30.936Z,6.67
2022-09-12T06:52:00.886Z,7.03
2022-09-12T06:54:28.734Z,7.37
2022-09-12T06:56:56.634Z,6.23
2022-09-12T06:59:24.815Z,7.90
2022-09-12T07:01:52.690Z,7.63
2022-09-12T07:04:22.936Z,6.93
2022-09-12T07:06:53.028Z,6.63
2022-09-12T07:09:29.574Z,7.13
2022-09-12T07:11:57.427Z,6.80
2022-09-12T07:14:39.332Z,7.37
2022-09-12T07:17:08.597Z,7.50
2022-09-12T07:19:36.455Z,7.13
2022-09-12T07:22:04.271Z,7.50
2022-09-12T07:24:33.407Z,7.40
2022-09-12T07:27:01.231Z,6.90
2022-09-12T07:29:37.775Z,6.83
2022-09-12T07:32:06.667Z,7.27
2022-09-12T07:34:35.154Z,6.77
2022-09-12T07:37:03.007Z,6.40
2022-09-12T07:39:32.875Z,6.87
2022-09-12T07:42:02.050Z,7.77
2022-09-12T07:44:30.125Z,7.27
2022-09-12T07:46:57.972Z,8.00
2022-09-12T07:49:25.842Z,7.63
2022-09-12T07:51:53.835Z,7.13
2022-09-12T07:54:21.825Z,6.83
2022-09-12T07:56:51.748Z,7.53
2022-09-12T07:59:48.381Z,7.40
2022-09-12T08:02:17.087Z,6.90
2022-09-12T08:04:46.108Z,8.10
2022-09-12T08:07:13.989Z,7.13
2022-09-12T08:09:41.803Z,6.87
2022-09-12T08:12:10.134Z,7.63
2022-09-12T08:14:39.393Z,7.30
2022-09-12T08:17:12.870Z,8.00
2022-09-12T08:19:46.827Z,7.57
2022-09-12T08:22:14.658Z,6.83
2022-09-12T08:24:42.515Z,7.70
2022-09-12T08:27:10.593Z,7.80
2022-09-12T08:29:42.212Z,8.00
2022-09-12T08:32:12.675Z,6.50
2022-09-12T08:34:42.948Z,8.17
2022-09-12T08:37:10.787Z,7.13
2022-09-12T08:39:38.667Z,7.10
2022-09-12T08:44:56.483Z,6.53
2022-09-12T08:47:30.942Z,7.70
2022-09-12T08:50:09.694Z,6.53
2022-09-12T08:52:47.414Z,7.00
2022-09-12T08:55:33.122Z,6.73
2022-09-12T08:58:14.268Z,7.53
2022-09-12T09:00:49.840Z,7.87
2022-09-12T09:03:45.264Z,7.03
2022-09-12T09:06:34.928Z,7.20
2022-09-12T09:09:14.741Z,7.30
2022-09-12T09:11:57.979Z,7.90
2022-09-12T09:14:55.315Z,7.50
2022-09-12T09:17:29.511Z,7.37
2022-09-12T09:20:06.443Z,6.60
2022-09-12T09:22:55.604Z,7.87
2022-09-12T09:25:29.418Z,7.63
2022-09-12T09:28:06.306Z,7.30
2022-09-12T09:30:36.856Z,7.83
2022-09-12T09:33:15.034Z,5.87
2022-09-12T09:35:46.280Z,15.97
2022-09-12T09:38:26.215Z,7.70
2022-09-12T09:41:12.571Z,7.13
2022-09-12T09:43:47.822Z,7.40
2022-09-12T09:46:16.498Z,7.23
2022-09-12T09:48:49.019Z,6.93
2022-09-12T09:51:34.266Z,6.80
2022-09-12T09:54:10.465Z,6.23
2022-09-12T09:56:49.943Z,6.57
2022-09-12T09:59:26.262Z,5.50
2022-09-12T10:01:55.751Z,5.77
2022-09-12T10:04:27.317Z,5.63
2022-09-12T10:06:58.078Z,5.00
2022-09-12T10:09:28.795Z,5.30
2022-09-12T10:11:58.610Z,5.23
2022-09-12T10:14:36.634Z,4.80
2022-09-12T10:17:31.743Z,5.23
2022-09-12T10:22:52.647Z,4.20
2022-09-12T10:25:21.533Z,4.83
2022-09-12T10:27:58.444Z,4.47
2022-09-12T10:30:31.257Z,4.67
2022-09-12T10:33:11.310Z,4.50
2022-09-12T10:35:51.636Z,4.80
2022-09-12T10:38:27.740Z,4.40
2022-09-12T10:41:15.561Z,4.27
2022-09-12T10:43:46.473Z,3.00
2022-09-12T10:46:32.920Z,3.57
2022-09-12T10:49:33.482Z,3.20
2022-09-12T10:52:18.922Z,3.07
2022-09-12T10:54:51.825Z,3.63
2022-09-12T10:57:48.876Z,2.90
2022-09-12T11:00:22.371Z,2.57
2022-09-12T11:02:57.390Z,3.90
2022-09-12T11:05:41.891Z,2.90
2022-09-12T11:08:31.490Z,3.13
2022-09-12T11:11:13.520Z,3.33
2022-09-12T11:14:03.787Z,3.20
2022-09-12T11:16:42.672Z,3.10
2022-09-12T11:19:52.377Z,3.00
2022-09-12T11:22:33.720Z,2.90
2022-09-12T11:25:24.726Z,3.20
2022-09-12T11:28:22.951Z,2.67
2022-09-12T11:31:03.869Z,2.50
2022-09-12T11:33:43.219Z,3.10
2022-09-12T11:36:20.944Z,2.70
2022-09-12T11:38:58.752Z,3.70
2022-09-12T11:41:32.384Z,3.47
2022-09-12T11:44:19.182Z,2.33
2022-09-12T11:46:52.988Z,2.97
2022-09-12T11:49:27.421Z,2.40
2022-09-12T11:52:04.771Z,3.10
2022-09-12T11:54:37.131Z,3.40
2022-09-12T11:57:17.755Z,2.73
2022-09-12T11:59:53.367Z,3.17
2022-09-12T12:02:28.668Z,3.07
2022-09-12T12:05:08.831Z,3.63
2022-09-12T12:07:45.783Z,2.97
2022-09-12T12:10:26.868Z,2.70
2022-09-12T12:12:59.909Z,2.70
2022-09-12T12:15:29.211Z,2.63
2022-09-12T12:18:08.734Z,3.00
2022-09-12T12:20:45.815Z,2.40
2022-09-12T12:23:28.487Z,2.63
2022-09-12T12:25:57.990Z,3.30
2022-09-12T12:29:00.957Z,2.70
2022-09-12T12:31:28.865Z,2.80
2022-09-12T12:34:23.475Z,3.10
2022-09-12T12:36:51.366Z,3.03
2022-09-12T12:39:56.200Z,3.10
2022-09-12T12:43:14.530Z,2.80
2022-09-12T12:46:06.335Z,2.70
2022-09-12T12:49:07.193Z,2.43
2022-09-12T12:52:05.493Z,2.70
2022-09-12T12:54:59.304Z,2.70
2022-09-12T12:57:46.650Z,3.63
2022-09-12T13:00:30.566Z,3.30
2022-09-12T13:03:04.846Z,2.83
2022-09-12T13:05:41.347Z,3.10
2022-09-12T13:08:13.948Z,2.27
2022-09-12T13:10:53.760Z,2.93
2022-09-12T13:13:36.025Z,2.70
2022-09-12T13:16:07.634Z,2.70
2022-09-12T13:18:44.348Z,2.90
2022-09-12T13:21:16.697Z,2.50
2022-09-12T13:26:27.940Z,2.47
2022-09-12T13:29:15.756Z,2.30
2022-09-12T13:31:47.482Z,2.63
2022-09-12T13:34:24.354Z,2.63
2022-09-12T13:37:12.721Z,3.37
2022-09-12T13:39:49.758Z,2.50
2022-09-12T13:42:40.038Z,2.60
2022-09-12T13:45:14.771Z,2.70
2022-09-12T13:47:44.070Z,2.40
2022-09-12T13:50:19.788Z,1.93
2022-09-12T13:52:58.650Z,2.43
2022-09-12T13:55:36.886Z,2.47
2022-09-12T13:58:06.434Z,2.63
2022-09-12T14:00:36.013Z,2.67
2022-09-12T14:03:44.135Z,2.33
2022-09-12T14:06:20.095Z,2.50
2022-09-12T14:08:48.832Z,2.33
2022-09-12T14:11:28.061Z,2.67
2022-09-12T14:13:56.294Z,2.40
2022-09-12T14:16:27.262Z,2.80
2022-09-12T14:18:55.507Z,2.20
2022-09-12T14:21:35.505Z,2.20
2022-09-12T14:24:06.117Z,3.10
2022-09-12T14:26:36.354Z,2.43
2022-09-12T14:29:07.104Z,2.40
2022-09-12T14:31:37.668Z,2.73
2022-09-12T14:34:13.630Z,2.40
2022-09-12T14:36:45.644Z,2.30
2022-09-12T14:39:25.399Z,2.53
2022-09-12T14:42:03.430Z,3.23
2022-09-12T14:44:37.694Z,2.80
2022-09-12T14:47:20.117Z,2.80
2022-09-12T14:49:52.511Z,2.87
2022-09-12T14:52:33.050Z,2.87
2022-09-12T14:55:17.061Z,2.50
2022-09-12T14:57:45.181Z,2.70
2022-09-12T15:00:23.916Z,2.80
2022-09-12T15:02:55.855Z,2.97
2022-09-12T15:05:28.989Z,2.33
2022-09-12T15:08:03.491Z,2.27
2022-09-12T15:10:35.393Z,2.30
2022-09-12T15:13:21.052Z,2.57
2022-09-12T15:15:51.783Z,3.30
2022-09-12T15:18:20.708Z,2.63
2022-09-12T15:21:07.279Z,3.07
2022-09-12T15:23:40.257Z,2.50
2022-09-12T15:26:11.011Z,2.10
2022-09-12T15:28:40.058Z,2.83
2022-09-12T15:31:13.442Z,2.57
2022-09-12T15:33:41.432Z,2.77
2022-09-12T15:36:20.670Z,2.30
2022-09-12T15:38:50.609Z,2.40
2022-09-12T15:41:20.212Z,2.20
2022-09-12T15:43:51.184Z,2.43
2022-09-12T15:46:20.235Z,2.67
2022-09-12T15:48:48.172Z,2.33
2022-09-12T15:51:17.750Z,2.43
2022-09-12T15:53:46.730Z,2.13
2022-09-12T15:56:17.526Z,2.90
2022-09-12T15:59:00.286Z,3.73
2022-09-12T16:01:31.335Z,2.90
2022-09-12T16:03:59.646Z,2.10
2022-09-12T16:06:37.287Z,2.80
2022-09-12T16:09:07.769Z,2.27
2022-09-12T16:11:36.942Z,2.40
2022-09-12T16:14:06.122Z,2.70
2022-09-12T16:16:34.761Z,2.63
2022-09-12T16:19:02.576Z,1.83
2022-09-12T16:21:37.599Z,3.10
2022-09-12T16:24:05.984Z,1.90
2022-09-12T16:26:34.027Z,2.60
2022-09-12T16:29:10.266Z,3.00
2022-09-12T16:31:39.973Z,2.47
2022-09-12T16:34:08.134Z,2.40
2022-09-12T16:36:35.994Z,2.90
2022-09-12T16:39:03.983Z,3.37
2022-09-12T16:41:34.024Z,2.80
2022-09-12T16:44:05.757Z,3.50
2022-09-12T16:46:36.591Z,3.40
2022-09-12T16:49:09.326Z,3.93
2022-09-12T16:51:46.134Z,2.60
2022-09-12T16:54:17.480Z,3.23
2022-09-12T16:56:48.913Z,2.63
2022-09-12T16:59:18.053Z,3.30
2022-09-12T17:01:46.167Z,3.30
2022-09-12T17:04:19.655Z,3.10
2022-09-12T17:06:51.270Z,2.70
2022-09-12T17:09:19.323Z,3.20
2022-09-12T17:11:49.537Z,2.80
2022-09-12T17:14:18.949Z,3.50
2022-09-12T17:16:51.716Z,2.87
2022-09-12T17:19:22.089Z,2.97
2022-09-12T17:21:50.567Z,3.33
2022-09-12T17:24:19.965Z,3.40
2022-09-12T17:26:51.940Z,3.10
2022-09-12T17:29:26.519Z,3.77
2022-09-12T17:31:57.130Z,2.90
2022-09-12T17:34:24.960Z,2.60
2022-09-12T17:39:39.837Z,3.60
2022-09-12T17:42:08.602Z,3.07
2022-09-12T17:44:38.106Z,3.40
2022-09-12T17:47:06.070Z,3.10
2022-09-12T17:49:35.942Z,3.50
2022-09-12T17:52:12.091Z,4.20
2022-09-12T17:54:39.924Z,4.33
2022-09-12T17:57:07.753Z,3.63
2022-09-12T17:59:36.919Z,3.80
2022-09-12T18:02:21.383Z,3.70
2022-09-12T18:04:57.730Z,3.00
2022-09-12T18:07:25.536Z,3.57
2022-09-12T18:09:53.462Z,3.23
2022-09-12T18:12:21.315Z,3.60
2022-09-12T18:14:50.467Z,3.80
2022-09-12T18:17:20.900Z,3.57
2022-09-12T18:19:53.411Z,3.23
2022-09-12T18:22:21.515Z,3.00
2022-09-12T18:24:49.372Z,3.13
2022-09-12T18:27:17.196Z,3.20
2022-09-12T18:29:58.919Z,3.00
2022-09-12T18:32:36.988Z,3.00
2022-09-12T18:35:07.438Z,3.57
2022-09-12T18:37:35.390Z,3.30
2022-09-12T18:40:06.144Z,3.50
2022-09-12T18:42:34.003Z,3.40
2022-09-12T18:45:01.866Z,3.00
2022-09-12T18:47:36.633Z,3.33
2022-09-12T18:50:07.933Z,3.63
2022-09-12T18:52:37.860Z,3.40
2022-09-12T18:55:08.351Z,3.80
2022-09-12T18:57:36.161Z,4.57
2022-09-12T19:00:12.311Z,4.80
2022-09-12T19:02:41.753Z,4.10
2022-09-12T19:05:12.161Z,4.53
2022-09-12T19:07:40.020Z,4.47
2022-09-12T19:10:11.055Z,3.60
2022-09-12T19:12:41.921Z,3.83
2022-09-12T19:15:10.793Z,3.57
2022-09-12T19:17:38.614Z,3.47
2022-09-12T19:20:10.648Z,3.90
2022-09-12T19:22:38.446Z,4.00
2022-09-12T19:25:07.124Z,4.30
2022-09-12T19:27:37.080Z,4.37
2022-09-12T19:30:05.686Z,4.47
2022-09-12T19:32:36.009Z,4.33
2022-09-12T19:35:04.947Z,4.60
2022-09-12T19:37:36.692Z,4.53
2022-09-12T19:40:07.681Z,4.97
2022-09-12T19:42:35.574Z,4.00
2022-09-12T19:45:03.421Z,4.50
2022-09-12T19:47:31.227Z,3.80
2022-09-12T19:49:59.016Z,4.27
2022-09-12T19:52:28.975Z,4.50
2022-09-12T19:54:58.140Z,3.80
2022-09-12T19:57:28.754Z,3.70
2022-09-12T19:59:56.599Z,3.80
2022-09-12T20:02:26.382Z,3.73
2022-09-12T20:04:54.270Z,5.17
2022-09-12T20:07:24.917Z,3.40
2022-09-12T20:09:56.083Z,3.50
2022-09-12T20:12:25.250Z,4.20
2022-09-12T20:14:58.406Z,4.43
2022-09-12T20:17:26.288Z,5.00
2022-09-12T20:19:56.468Z,4.50
2022-09-12T20:22:24.339Z,3.97
2022-09-12T20:24:52.326Z,4.40
2022-09-12T20:27:23.150Z,3.70
2022-09-12T20:29:57.456Z,4.23
2022-09-12T20:32:28.288Z,3.93
2022-09-12T20:34:58.562Z,3.87
2022-09-12T20:37:26.361Z,3.67
2022-09-12T20:40:05.279Z,4.00
2022-09-12T20:42:35.190Z,3.67
2022-09-12T20:45:05.255Z,3.30
2022-09-12T20:47:35.550Z,3.73
2022-09-12T20:50:03.487Z,3.00
2022-09-12T20:52:31.429Z,3.30
2022-09-12T20:55:03.054Z,3.67
2022-09-12T20:57:30.987Z,3.33
2022-09-12T20:59:58.921Z,3.60
2022-09-12T21:02:29.722Z,3.43
2022-09-12T21:04:57.776Z,2.53
2022-09-12T21:07:34.561Z,3.27
2022-09-12T21:10:02.371Z,2.87
2022-09-12T21:12:32.472Z,4.20
2022-09-12T21:15:02.665Z,2.90
2022-09-12T21:17:31.848Z,3.77
2022-09-12T21:20:01.792Z,3.20
2022-09-12T21:22:30.718Z,3.10
2022-09-12T21:25:04.563Z,3.03
2022-09-12T21:27:34.775Z,3.30
2022-09-12T21:30:03.624Z,2.90
2022-09-12T21:32:36.970Z,3.67
2022-09-12T21:35:05.864Z,3.67
2022-09-12T21:37:36.170Z,3.33
2022-09-12T21:40:04.782Z,2.77
2022-09-12T21:42:32.810Z,3.37
2022-09-12T21:45:07.372Z,3.37
2022-09-12T21:47:41.488Z,3.23
2022-09-12T21:50:12.874Z,3.33
2022-09-12T21:52:40.711Z,3.43
2022-09-12T21:55:09.746Z,2.70
2022-09-12T21:57:37.939Z,2.90
2022-09-12T22:00:08.002Z,2.90
2022-09-12T22:02:37.144Z,2.10
2022-09-12T22:05:07.761Z,3.60
2022-09-12T22:07:38.773Z,4.00
2022-09-12T22:10:16.143Z,3.33
2022-09-12T22:12:46.531Z,3.30
2022-09-12T22:15:39.513Z,2.90
2022-09-12T22:18:07.620Z,3.10
2022-09-12T22:20:35.447Z,2.97
2022-09-12T22:23:24.761Z,3.37
2022-09-12T22:25:55.223Z,2.70
2022-09-12T22:28:26.712Z,2.90
2022-09-12T22:31:04.482Z,3.30
2022-09-12T22:33:35.837Z,3.33
2022-09-12T22:36:03.926Z,3.27
2022-09-12T22:38:31.713Z,3.23
2022-09-12T22:41:00.156Z,3.20
2022-09-12T22:43:30.780Z,3.60
2022-09-12T22:45:58.564Z,2.80
2022-09-12T22:48:26.842Z,3.10
2022-09-12T22:50:55.994Z,2.90
2022-09-12T22:53:23.879Z,4.13
2022-09-12T22:55:59.182Z,3.00
2022-09-12T22:58:29.751Z,3.00
2022-09-12T23:00:57.658Z,3.00
2022-09-12T23:03:42.570Z,2.93
2022-09-12T23:06:12.645Z,3.20
2022-09-12T23:08:41.459Z,3.40
2022-09-12T23:11:17.996Z,3.50
2022-09-12T23:13:48.197Z,3.63
2022-09-12T23:16:19.185Z,3.50
2022-09-12T23:18:47.436Z,3.70
2022-09-12T23:21:18.035Z,3.13
2022-09-12T23:23:48.211Z,3.10
2022-09-12T23:26:20.582Z,3.00
2022-09-12T23:28:53.679Z,2.50
2022-09-12T23:31:29.646Z,2.97
2022-09-12T23:33:58.839Z,2.90
2022-09-12T23:36:30.763Z,2.87
2022-09-12T23:39:05.309Z,2.60
2022-09-12T23:41:35.310Z,3.20
2022-09-12T23:44:03.563Z,2.70
2022-09-12T23:46:33.577Z,3.00
2022-09-12T23:49:03.518Z,3.27
2022-09-12T23:51:38.532Z,3.30
2022-09-12T23:54:06.442Z,2.73
2022-09-12T23:56:36.317Z,2.90
2022-09-12T23:59:12.728Z,2.83
